Time;durP1;ratioP1;P1;durP2;ratioP2;P2;SDS_P1;SDS_P2;PMS_P1;PMS_P2;Temp;Humidity;BMP_temperature;BMP_pressure;BME280_temperature;BME280_humidity;BME280_pressure;Samples;Min_cycle;Max_cycle;Signal;HPM_P1;HPM_P2
2021/06/26 00:00:52;;;;;;;;;;;;;;;25.58;48.62;100459.13;5096107;28;967;-36
2021/06/26 00:03:21;;;;;;;;;;;;;;;22.99;54.01;100451.44;5096537;28;821;-37
2021/06/26 00:05:46;;;;;;;;;;;;;;;24.89;49.39;100446.19;5096230;28;724;-39
2021/06/26 00:08:12;;;;;;;;;;;;;;;25.24;49.84;100453.13;5095739;28;859;-35
2021/06/26 00:10:37;;;;;;;;;;;;;;;25.53;48.18;100449.72;5096112;28;755;-38
2021/06/26 00:13:02;;;;;;;;;;;;;;;24.00;49.66;100456.00;5095871;28;811;-38
2021/06/26 00:15:28;;;;;;;;;;;;;;;24.64;50.50;100456.25;5095959;28;1970;-33
2021/06/26 00:17:53;;;;;;;;;;;;;;;25.24;49.67;100469.28;5095753;28;742;-36
2021/06/26 00:20:18;;;;;;;;;;;;;;;25.44;48.83;100470.50;5096179;28;835;-34
2021/06/26 00:22:44;;;;;;;;;;;;;;;25.46;50.22;100464.09;5095828;28;1115;-40
2021/06/26 00:25:09;;;;;;;;;;;;;;;23.75;53.94;100456.00;5095541;28;827;-40
2021/06/26 00:27:35;;;;;;;;;;;;;;;24.99;49.86;100459.47;5099290;28;799;-39
2021/06/26 00:30:00;;;;;;;;;;;;;;;25.27;49.59;100450.94;5099252;28;971;-36
2021/06/26 00:32:26;;;;;;;;;;;;;;;25.58;48.54;100459.13;5099614;28;791;-37
2021/06/26 00:34:51;;;;;;;;;;;;;;;25.56;48.52;100451.22;5100736;28;1976;-36
2021/06/26 00:37:16;;;;;;;;;;;;;;;25.59;49.83;100448.16;5119545;28;881;-39
2021/06/26 00:39:42;;;;;;;;;;;;;;;23.90;53.94;100447.25;5119775;28;778;-39
2021/06/26 00:42:07;;;;;;;;;;;;;;;25.13;49.62;100448.97;5120035;28;830;-40
2021/06/26 00:44:32;;;;;;;;;;;;;;;25.38;49.36;100438.06;5109309;28;958;-38
2021/06/26 00:47:00;;;;;;;;;;;;;;;25.68;48.56;100422.03;5099490;28;830;-36
2021/06/26 00:49:25;;;;;;;;;;;;;;;22.61;55.17;100415.13;5099136;28;893;-33
2021/06/26 00:51:50;;;;;;;;;;;;;;;24.85;50.39;100411.75;5098962;28;799;-37
2021/06/26 00:54:16;;;;;;;;;;;;;;;25.24;50.67;100404.69;5099206;28;1961;-37
2021/06/26 00:56:41;;;;;;;;;;;;;;;25.54;49.24;100402.09;5081275;28;811;-37
2021/06/26 00:59:06;;;;;;;;;;;;;;;25.42;49.67;100404.38;5098128;28;947;-40
2021/06/26 01:01:32;;;;;;;;;;;;;;;24.21;52.92;100404.44;5099134;28;795;-36
2021/06/26 01:03:57;;;;;;;;;;;;;;;25.13;50.37;100409.44;5099215;28;812;-37
2021/06/26 01:06:22;;;;;;;;;;;;;;;25.39;49.57;100410.94;5098591;28;823;-37
2021/06/26 01:08:47;;;;;;;;;;;;;;;25.61;49.97;100413.00;5098840;28;767;-40
2021/06/26 01:11:13;;;;;;;;;;;;;;;23.31;54.96;100404.25;5099075;28;823;-39
2021/06/26 01:13:38;;;;;;;;;;;;;;;24.98;50.51;100413.91;5097964;28;1909;-37
2021/06/26 01:16:03;;;;;;;;;;;;;;;25.27;50.80;100409.69;5098942;28;744;-36
2021/06/26 01:18:29;;;;;;;;;;;;;;;25.65;49.30;100403.56;5098942;28;870;-35
2021/06/26 01:20:54;;;;;;;;;;;;;;;23.27;52.84;100394.00;5098349;28;787;-33
2021/06/26 01:23:20;;;;;;;;;;;;;;;24.75;51.33;100393.16;5098738;28;1103;-39
2021/06/26 01:25:45;;;;;;;;;;;;;;;25.17;50.57;100396.47;5098642;28;796;-40
2021/06/26 01:28:12;;;;;;;;;;;;;;;25.50;49.21;100416.94;5098006;28;831;-33
2021/06/26 01:30:38;;;;;;;;;;;;;;;25.63;49.86;100425.28;5098220;28;966;-35
2021/06/26 01:33:03;;;;;;;;;;;;;;;25.85;48.88;100432.66;5098530;28;755;-36
2021/06/26 01:35:28;;;;;;;;;;;;;;;23.13;53.75;100436.56;5104090;28;1988;-33
2021/06/26 01:37:54;;;;;;;;;;;;;;;24.79;51.56;100440.22;5117782;28;747;-36
2021/06/26 01:40:20;;;;;;;;;;;;;;;25.28;50.87;100438.28;5118702;28;831;-35
2021/06/26 01:42:46;;;;;;;;;;;;;;;25.51;49.44;100449.06;5100201;28;821;-37
2021/06/26 01:45:11;;;;;;;;;;;;;;;25.59;50.45;100448.16;5103033;28;970;-34
2021/06/26 01:47:36;;;;;;;;;;;;;;;24.14;53.55;100443.69;5097871;28;839;-37
2021/06/26 01:50:03;;;;;;;;;;;;;;;25.21;50.25;100443.53;5097799;28;808;-34
2021/06/26 01:52:28;;;;;;;;;;;;;;;25.45;50.17;100447.09;5098275;28;806;-34
2021/06/26 01:54:53;;;;;;;;;;;;;;;25.59;50.29;100442.78;5097906;28;1965;-40
2021/06/26 01:57:18;;;;;;;;;;;;;;;23.11;55.33;100441.25;5097790;28;795;-35
2021/06/26 01:59:44;;;;;;;;;;;;;;;25.00;50.79;100447.72;5097332;28;998;-40
2021/06/26 02:02:09;;;;;;;;;;;;;;;25.26;51.18;100462.69;5097924;28;783;-35
2021/06/26 02:04:34;;;;;;;;;;;;;;;25.64;49.98;100469.22;5097679;28;722;-41
2021/06/26 02:07:00;;;;;;;;;;;;;;;24.54;48.82;100462.63;5097398;28;811;-36
2021/06/26 02:09:26;;;;;;;;;;;;;;;24.51;52.31;100464.81;5097679;28;763;-40
2021/06/26 02:11:51;;;;;;;;;;;;;;;25.25;50.21;100457.50;5097790;28;779;-36
2021/06/26 02:14:16;;;;;;;;;;;;;;;25.50;49.51;100455.47;5096837;28;1902;-40
2021/06/26 02:16:42;;;;;;;;;;;;;;;25.47;50.61;100457.69;5098043;28;778;-36
2021/06/26 02:19:07;;;;;;;;;;;;;;;23.63;54.57;100457.31;5097162;28;874;-40
2021/06/26 02:21:32;;;;;;;;;;;;;;;25.03;50.29;100468.88;5097471;28;825;-36
2021/06/26 02:23:57;;;;;;;;;;;;;;;25.30;50.79;100474.78;5097534;28;1122;-39
2021/06/26 02:26:23;;;;;;;;;;;;;;;25.60;49.57;100459.78;5097576;28;760;-36
2021/06/26 02:28:48;;;;;;;;;;;;;;;25.62;49.77;100452.38;5096662;28;1018;-36
2021/06/26 02:31:13;;;;;;;;;;;;;;;25.66;50.85;100453.69;5097485;28;783;-40
2021/06/26 02:33:39;;;;;;;;;;;;;;;23.71;55.18;100460.00;5097074;28;1909;-35
2021/06/26 02:36:04;;;;;;;;;;;;;;;25.10;51.05;100478.94;5107891;28;1111;-37
2021/06/26 02:38:29;;;;;;;;;;;;;;;25.37;51.01;100483.00;5117608;28;855;-39
2021/06/26 02:40:55;;;;;;;;;;;;;;;25.65;49.88;100470.88;5117395;28;807;-37
2021/06/26 02:43:20;;;;;;;;;;;;;;;23.28;53.57;100460.94;5117341;28;749;-34
2021/06/26 02:45:46;;;;;;;;;;;;;;;24.77;51.90;100458.38;5097309;28;954;-40
2021/06/26 02:48:11;;;;;;;;;;;;;;;25.36;50.98;100461.66;5096709;28;534;-36
2021/06/26 02:50:37;;;;;;;;;;;;;;;25.61;50.19;100464.97;5096460;28;907;-40
2021/06/26 02:53:02;;;;;;;;;;;;;;;25.60;51.03;100465.16;5097146;28;804;-40
2021/06/26 02:55:27;;;;;;;;;;;;;;;24.31;54.53;100462.53;5096962;28;1898;-40
2021/06/26 02:57:52;;;;;;;;;;;;;;;25.24;52.17;100467.41;5096597;28;748;-36
2021/06/26 03:00:18;;;;;;;;;;;;;;;25.51;51.39;100467.06;5096490;28;1095;-35
2021/06/26 03:02:43;;;;;;;;;;;;;;;25.70;52.33;100476.59;5096852;28;732;-34
2021/06/26 03:05:09;;;;;;;;;;;;;;;24.95;48.05;100477.00;5096560;28;771;-33
2021/06/26 03:07:34;;;;;;;;;;;;;;;25.03;44.46;100470.72;5096810;28;779;-33
2021/06/26 03:09:59;;;;;;;;;;;;;;;25.07;47.17;100464.81;5096463;28;862;-35
2021/06/26 03:12:25;;;;;;;;;;;;;;;25.17;49.97;100463.78;5096504;28;788;-30
2021/06/26 03:14:50;;;;;;;;;;;;;;;25.01;49.88;100449.38;5096306;28;1957;-30
2021/06/26 03:17:15;;;;;;;;;;;;;;;25.12;50.51;100456.22;5096646;28;954;-33
2021/06/26 03:19:40;;;;;;;;;;;;;;;24.85;50.34;100454.78;5096321;28;882;-31
2021/06/26 03:22:06;;;;;;;;;;;;;;;24.96;51.26;100442.84;5096713;28;1095;-35
2021/06/26 03:24:32;;;;;;;;;;;;;;;24.74;58.50;100442.59;5096799;28;778;-33
2021/06/26 03:26:58;;;;;;;;;;;;;;;24.87;58.59;100434.78;5096132;28;835;-30
2021/06/26 03:29:23;;;;;;;;;;;;;;;24.68;60.06;100436.88;5096113;28;986;-36
2021/06/26 03:31:48;;;;;;;;;;;;;;;24.63;60.21;100435.72;5096372;28;862;-38
2021/06/26 03:34:14;;;;;;;;;;;;;;;24.49;60.97;100423.84;5096277;28;1913;-34
2021/06/26 03:36:39;;;;;;;;;;;;;;;24.85;56.07;100447.56;5112050;28;1535;-29
2021/06/26 03:39:04;;;;;;;;;;;;;;;24.50;60.38;100455.09;5116805;28;790;-32
2021/06/26 03:41:30;;;;;;;;;;;;;;;24.89;59.47;100446.19;5116434;28;759;-32
2021/06/26 03:43:58;;;;;;;;;;;;;;;25.03;53.09;100452.72;5106747;28;1463;-38
2021/06/26 03:46:24;;;;;;;;;;;;;;;24.67;54.91;100445.94;5096616;28;759;-34
2021/06/26 03:48:49;;;;;;;;;;;;;;;24.91;53.81;100432.59;5096189;28;827;-35
2021/06/26 03:51:14;;;;;;;;;;;;;;;25.19;53.43;100434.81;5077660;28;856;-29
2021/06/26 03:53:40;;;;;;;;;;;;;;;24.91;53.67;100444.22;5096741;28;1914;-35
2021/06/26 03:56:05;;;;;;;;;;;;;;;25.16;52.03;100444.06;5096180;28;798;-33
2021/06/26 03:58:31;;;;;;;;;;;;;;;25.28;51.22;100457.13;5095704;28;958;-34
2021/06/26 04:00:56;;;;;;;;;;;;;;;24.12;57.29;100459.19;5096811;28;858;-34
2021/06/26 04:03:22;;;;;;;;;;;;;;;25.03;52.71;100455.41;5099998;28;830;-34
2021/06/26 04:05:47;;;;;;;;;;;;;;;25.41;51.82;100461.91;5100173;28;810;-38
2021/06/26 04:08:12;;;;;;;;;;;;;;;25.03;52.55;100451.88;5100524;28;815;-35
2021/06/26 04:10:38;;;;;;;;;;;;;;;25.46;51.12;100454.16;5100020;28;732;-38
2021/06/26 04:13:03;;;;;;;;;;;;;;;25.70;50.26;100471.19;5100273;28;811;-32
2021/06/26 04:15:29;;;;;;;;;;;;;;;25.78;49.80;100484.59;5099599;28;1973;-33
2021/06/26 04:17:54;;;;;;;;;;;;;;;25.88;49.44;100491.59;5099523;28;839;-34
2021/06/26 04:20:19;;;;;;;;;;;;;;;25.91;49.43;100483.13;5099921;28;804;-37
2021/06/26 04:22:45;;;;;;;;;;;;;;;25.96;49.57;100474.53;5099764;28;1118;-33
2021/06/26 04:25:12;;;;;;;;;;;;;;;26.04;49.46;100469.06;5099136;28;772;-33
2021/06/26 04:27:37;;;;;;;;;;;;;;;25.98;49.34;100461.69;5099989;28;728;-33
2021/06/26 04:30:03;;;;;;;;;;;;;;;26.04;49.20;100466.38;5099591;28;966;-32
2021/06/26 04:32:29;;;;;;;;;;;;;;;26.01;48.74;100458.63;5099385;28;866;-33
2021/06/26 04:34:54;;;;;;;;;;;;;;;26.08;49.10;100477.59;5100827;28;1973;-31
2021/06/26 04:37:19;;;;;;;;;;;;;;;26.06;48.54;100482.38;5117884;28;1110;-33
2021/06/26 04:39:45;;;;;;;;;;;;;;;26.16;48.63;100485.59;5099332;28;971;-37
2021/06/26 04:42:10;;;;;;;;;;;;;;;26.23;48.73;100489.25;5099100;28;487;-33
2021/06/26 04:44:35;;;;;;;;;;;;;;;26.33;48.62;100478.25;5099020;28;1017;-34
2021/06/26 04:47:01;;;;;;;;;;;;;;;26.45;48.73;100478.63;5098756;28;744;-32
2021/06/26 04:49:26;;;;;;;;;;;;;;;26.57;48.60;100468.22;5099424;28;866;-30
2021/06/26 04:51:51;;;;;;;;;;;;;;;26.49;49.28;100455.63;5099225;28;803;-34
2021/06/26 04:54:17;;;;;;;;;;;;;;;26.39;49.61;100447.00;5099014;28;1906;-33
2021/06/26 04:56:42;;;;;;;;;;;;;;;26.45;49.22;100443.56;5098939;28;844;-35
2021/06/26 04:59:07;;;;;;;;;;;;;;;26.55;49.00;100450.53;5098588;28;1005;-32
2021/06/26 05:01:32;;;;;;;;;;;;;;;26.50;48.88;100437.59;5099013;28;768;-31
2021/06/26 05:03:58;;;;;;;;;;;;;;;26.55;49.20;100431.66;5098968;28;886;-35
2021/06/26 05:06:23;;;;;;;;;;;;;;;26.59;49.01;100428.38;5099234;28;732;-35
2021/06/26 05:08:48;;;;;;;;;;;;;;;26.57;48.73;100445.78;5098931;28;752;-32
2021/06/26 05:11:13;;;;;;;;;;;;;;;26.64;48.89;100442.16;5098423;28;822;-28
2021/06/26 05:13:39;;;;;;;;;;;;;;;26.71;48.56;100436.03;5096782;28;1989;-33
2021/06/26 05:16:04;;;;;;;;;;;;;;;26.73;48.36;100434.81;5098889;28;796;-32
2021/06/26 05:18:30;;;;;;;;;;;;;;;26.75;48.92;100437.31;5098446;28;847;-34
2021/06/26 05:20:55;;;;;;;;;;;;;;;26.80;48.83;100437.59;5098670;28;780;-32
2021/06/26 05:23:20;;;;;;;;;;;;;;;26.80;48.69;100440.28;5098394;28;1063;-31
2021/06/26 05:25:46;;;;;;;;;;;;;;;26.73;48.93;100440.19;5098399;28;791;-30
2021/06/26 05:28:11;;;;;;;;;;;;;;;26.87;48.33;100426.88;5098394;28;783;-31
2021/06/26 05:30:37;;;;;;;;;;;;;;;26.81;48.72;100428.44;5098458;28;967;-32
2021/06/26 05:33:02;;;;;;;;;;;;;;;26.89;48.41;100425.66;5098189;28;751;-32
2021/06/26 05:35:27;;;;;;;;;;;;;;;26.92;48.12;100421.75;5104076;28;1914;-31
2021/06/26 05:37:53;;;;;;;;;;;;;;;26.93;48.37;100431.50;5118818;28;783;-35
2021/06/26 05:40:18;;;;;;;;;;;;;;;26.90;48.38;100427.34;5118469;28;808;-34
2021/06/26 05:42:43;;;;;;;;;;;;;;;26.93;48.67;100436.06;5118428;28;783;-34
2021/06/26 05:45:09;;;;;;;;;;;;;;;27.10;48.16;100444.81;5103463;28;1009;-34
2021/06/26 05:47:34;;;;;;;;;;;;;;;27.21;48.32;100446.19;5097927;28;815;-33
2021/06/26 05:49:59;;;;;;;;;;;;;;;27.30;47.98;100455.84;5098236;28;799;-32
2021/06/26 05:52:24;;;;;;;;;;;;;;;27.41;47.78;100461.75;5098447;28;743;-35
2021/06/26 05:54:50;;;;;;;;;;;;;;;27.39;47.89;100459.25;5097711;28;1910;-31
2021/06/26 05:57:15;;;;;;;;;;;;;;;27.42;47.92;100460.72;5097650;28;849;-33
2021/06/26 05:59:41;;;;;;;;;;;;;;;27.43;47.79;100460.53;5097718;28;1030;-33
2021/06/26 06:02:12;;;;;;;;;;;;;;;27.48;48.02;100476.16;5097544;28;735;-35
2021/06/26 06:04:38;;;;;;;;;;;;;;;27.51;47.66;100478.47;5097990;28;794;-31
2021/06/26 06:07:03;;;;;;;;;;;;;;;27.53;47.73;100491.81;5097891;28;839;-30
2021/06/26 06:09:28;;;;;;;;;;;;;;;27.54;47.66;100497.03;5097682;28;771;-33
2021/06/26 06:11:54;;;;;;;;;;;;;;;27.56;47.66;100503.03;5097932;28;851;-32
2021/06/26 06:14:19;;;;;;;;;;;;;;;27.54;48.03;100501.59;5097130;28;1906;-33
2021/06/26 06:16:44;;;;;;;;;;;;;;;27.61;47.61;100491.69;5097312;28;866;-35
2021/06/26 06:19:10;;;;;;;;;;;;;;;27.62;47.86;100487.94;5097688;28;763;-32
2021/06/26 06:21:35;;;;;;;;;;;;;;;27.62;47.76;100488.78;5097640;28;750;-33
2021/06/26 06:24:00;;;;;;;;;;;;;;;27.65;47.69;100489.41;5077736;28;1131;-32
2021/06/26 06:26:26;;;;;;;;;;;;;;;27.64;47.67;100488.59;5097359;28;820;-34
2021/06/26 06:28:51;;;;;;;;;;;;;;;27.66;47.53;100500.03;5096934;28;1014;-32
2021/06/26 06:31:16;;;;;;;;;;;;;;;27.64;47.83;100504.81;5096792;28;855;-34
2021/06/26 06:33:42;;;;;;;;;;;;;;;27.65;47.66;100497.50;5097271;28;1909;-32
2021/06/26 06:36:07;;;;;;;;;;;;;;;27.59;48.17;100501.84;5108716;28;1147;-35
2021/06/26 06:38:33;;;;;;;;;;;;;;;27.69;47.73;100501.56;5111629;28;1134;-34
2021/06/26 06:40:58;;;;;;;;;;;;;;;27.66;48.08;100507.31;5097269;28;735;-32
2021/06/26 06:43:24;;;;;;;;;;;;;;;27.63;48.00;100503.97;5096816;28;830;-35
2021/06/26 06:45:49;;;;;;;;;;;;;;;27.58;48.43;100501.00;5096664;28;1071;-37
2021/06/26 06:48:14;;;;;;;;;;;;;;;27.61;48.28;100499.78;5096651;28;807;-33
2021/06/26 06:50:40;;;;;;;;;;;;;;;27.68;47.88;100492.59;5097225;28;764;-37
2021/06/26 06:53:05;;;;;;;;;;;;;;;27.57;48.47;100502.03;5096315;28;716;-35
2021/06/26 06:55:30;;;;;;;;;;;;;;;27.59;48.52;100497.25;5097249;28;1972;-32
2021/06/26 06:57:56;;;;;;;;;;;;;;;27.67;48.33;100490.91;5096721;28;775;-31
2021/06/26 07:00:21;;;;;;;;;;;;;;;27.71;48.11;100481.41;5096152;28;954;-32
2021/06/26 07:02:46;;;;;;;;;;;;;;;27.72;48.08;100487.66;5096975;28;771;-35
2021/06/26 07:05:12;;;;;;;;;;;;;;;27.73;47.90;100470.41;5096491;28;829;-30
2021/06/26 07:07:37;;;;;;;;;;;;;;;27.78;47.73;100472.53;5096783;28;771;-32
2021/06/26 07:10:05;;;;;;;;;;;;;;;27.72;48.16;100480.38;5096992;28;790;-32
2021/06/26 07:12:30;;;;;;;;;;;;;;;27.60;48.30;100487.28;5096682;28;739;-34
2021/06/26 07:14:56;;;;;;;;;;;;;;;27.50;47.93;100480.34;5095965;28;2008;-32
2021/06/26 07:17:21;;;;;;;;;;;;;;;27.49;48.09;100478.66;5096459;28;855;-34
2021/06/26 07:19:46;;;;;;;;;;;;;;;27.47;47.79;100488.00;5096354;28;768;-39
2021/06/26 07:22:12;;;;;;;;;;;;;;;27.44;47.98;100491.09;5096534;28;1069;-38
2021/06/26 07:24:37;;;;;;;;;;;;;;;27.45;47.90;100481.94;5096318;28;811;-35
2021/06/26 07:27:02;;;;;;;;;;;;;;;27.45;48.17;100481.94;5096209;28;867;-37
2021/06/26 07:29:28;;;;;;;;;;;;;;;27.39;47.97;100484.38;5096533;28;982;-30
2021/06/26 07:31:53;;;;;;;;;;;;;;;27.37;48.20;100477.50;5096006;28;811;-33
2021/06/26 07:34:18;;;;;;;;;;;;;;;27.33;44.05;100466.25;5096559;28;1918;-31
2021/06/26 07:36:44;;;;;;;;;;;;;;;27.31;42.75;100462.91;5115324;28;1201;-32
2021/06/26 07:39:09;;;;;;;;;;;;;;;27.27;42.66;100464.31;5121047;28;799;-34
2021/06/26 07:41:34;;;;;;;;;;;;;;;27.46;44.20;100467.44;5120776;28;843;-34
2021/06/26 07:43:59;;;;;;;;;;;;;;;27.58;44.73;100476.69;5115401;28;1013;-32
2021/06/26 07:46:25;;;;;;;;;;;;;;;27.66;44.93;100464.91;5100153;28;795;-33
2021/06/26 07:48:50;;;;;;;;;;;;;;;27.66;44.99;100473.00;5100522;28;835;-33
2021/06/26 07:51:15;;;;;;;;;;;;;;;27.68;45.21;100484.50;5100463;28;884;-38
2021/06/26 07:53:41;;;;;;;;;;;;;;;27.69;45.36;100491.59;5100318;28;1910;-33
2021/06/26 07:56:06;;;;;;;;;;;;;;;27.79;45.63;100496.66;5100275;28;823;-32
2021/06/26 07:58:31;;;;;;;;;;;;;;;27.80;45.56;100487.53;5099847;28;1014;-31
2021/06/26 08:00:56;;;;;;;;;;;;;;;27.81;45.72;100472.97;5099953;28;795;-34
2021/06/26 08:03:22;;;;;;;;;;;;;;;27.79;45.84;100450.72;5100326;28;870;-32
2021/06/26 08:05:48;;;;;;;;;;;;;;;27.84;45.74;100450.94;5100024;28;815;-30
2021/06/26 08:08:13;;;;;;;;;;;;;;;27.83;45.73;100449.28;5099940;28;740;-35
2021/06/26 08:10:39;;;;;;;;;;;;;;;27.75;45.88;100447.56;5100225;28;858;-34
2021/06/26 08:13:04;;;;;;;;;;;;;;;27.51;40.20;100444.19;5099703;28;854;-31
2021/06/26 08:15:42;;;;;;;;;;;;;;;27.38;41.00;100438.66;5099272;28;1901;-33
2021/06/26 08:18:07;;;;;;;;;;;;;;;27.38;41.54;100426.00;5099885;28;759;-31
2021/06/26 08:20:33;;;;;;;;;;;;;;;27.35;42.31;100431.78;5099484;28;532;-30
2021/06/26 08:22:58;;;;;;;;;;;;;;;27.40;42.62;100428.50;5099525;28;1166;-32
2021/06/26 08:25:23;;;;;;;;;;;;;;;27.37;43.03;100427.03;5099680;28;720;-30
2021/06/26 08:27:49;;;;;;;;;;;;;;;27.32;43.01;100436.72;5099940;28;783;-29
2021/06/26 08:30:14;;;;;;;;;;;;;;;27.39;43.21;100438.47;5099105;28;1034;-32
2021/06/26 08:32:40;;;;;;;;;;;;;;;27.55;43.07;100446.50;5099749;28;726;-31
2021/06/26 08:35:05;;;;;;;;;;;;;;;27.50;43.40;100449.78;5101626;28;1906;-34
2021/06/26 08:37:31;;;;;;;;;;;;;;;27.46;43.94;100465.53;5119570;28;736;-33
2021/06/26 08:39:56;;;;;;;;;;;;;;;27.53;44.17;100462.09;5120381;28;779;-30
2021/06/26 08:42:21;;;;;;;;;;;;;;;27.53;44.11;100468.31;5120072;28;878;-33
2021/06/26 08:44:48;;;;;;;;;;;;;;;27.52;44.22;100474.75;5107421;28;962;-35
2021/06/26 08:47:13;;;;;;;;;;;;;;;27.50;44.21;100460.59;5099121;28;767;-30
2021/06/26 08:49:38;;;;;;;;;;;;;;;27.47;44.34;100471.78;5098946;28;843;-34
2021/06/26 08:52:03;;;;;;;;;;;;;;;27.42;44.82;100464.28;5099009;28;760;-33
2021/06/26 08:54:29;;;;;;;;;;;;;;;27.44;45.22;100473.03;5099333;28;1897;-33
2021/06/26 08:56:54;;;;;;;;;;;;;;;27.48;44.74;100465.34;5098523;28;820;-31
2021/06/26 08:59:20;;;;;;;;;;;;;;;27.42;46.02;100456.16;5098561;28;955;-29
2021/06/26 09:01:45;;;;;;;;;;;;;;;27.38;50.24;100453.00;5099268;28;826;-32
2021/06/26 09:04:14;;;;;;;;;;;;;;;27.28;48.43;100457.06;5098918;28;739;-33
2021/06/26 09:06:50;;;;;;;;;;;;;;;26.90;45.71;100454.31;5098828;28;793;-28
2021/06/26 09:09:15;;;;;;;;;;;;;;;27.41;45.80;100445.56;5098990;28;815;-32
2021/06/26 09:11:40;;;;;;;;;;;;;;;27.63;46.28;100446.38;5098948;28;814;-31
2021/06/26 09:14:18;;;;;;;;;;;;;;;27.76;45.76;100434.88;5098070;28;1969;-35
2021/06/26 09:16:51;;;;;;;;;;;;;;;27.90;45.51;100437.69;5098573;28;771;-29
2021/06/26 09:19:16;;;;;;;;;;;;;;;28.03;46.04;100429.69;5098488;28;803;-32
2021/06/26 09:21:43;;;;;;;;;;;;;;;28.08;46.87;100424.50;5098066;28;985;-32
2021/06/26 09:24:10;;;;;;;;;;;;;;;28.19;46.77;100425.84;5098571;28;748;-34
2021/06/26 09:26:35;;;;;;;;;;;;;;;28.28;46.74;100410.28;5098689;28;803;-30
2021/06/26 09:29:07;;;;;;;;;;;;;;;28.15;46.18;100416.44;5098302;28;966;-32
2021/06/26 09:31:32;;;;;;;;;;;;;;;27.43;41.64;100419.16;5098801;28;783;-31
2021/06/26 09:33:58;;;;;;;;;;;;;;;27.61;42.45;100411.44;5098488;28;1905;-33
2021/06/26 09:36:24;;;;;;;;;;;;;;;28.06;42.55;100404.13;5111303;28;1135;-41
2021/06/26 09:38:56;;;;;;;;;;;;;;;28.12;42.59;100381.69;5118645;28;843;-32
2021/06/26 09:41:21;;;;;;;;;;;;;;;28.20;42.19;100372.56;5118858;28;771;-31
2021/06/26 09:43:46;;;;;;;;;;;;;;;28.19;41.95;100366.34;5115002;28;958;-33
2021/06/26 09:46:12;;;;;;;;;;;;;;;28.23;42.27;100359.50;5097847;28;771;-33
2021/06/26 09:48:47;;;;;;;;;;;;;;;28.26;41.97;100352.84;5098237;28;767;-35
2021/06/26 09:51:19;;;;;;;;;;;;;;;28.31;41.96;100344.97;5098126;28;791;-34
2021/06/26 09:53:51;;;;;;;;;;;;;;;28.38;42.14;100350.44;5097993;28;1922;-32
2021/06/26 09:56:16;;;;;;;;;;;;;;;28.32;42.16;100348.50;5097942;28;775;-30
2021/06/26 09:58:48;;;;;;;;;;;;;;;27.95;40.19;100346.88;5096446;28;995;-32
2021/06/26 10:01:13;;;;;;;;;;;;;;;27.81;40.29;100355.94;5097939;28;744;-33
2021/06/26 10:03:39;;;;;;;;;;;;;;;27.67;41.70;100355.81;5079730;28;964;-32
2021/06/26 10:06:04;;;;;;;;;;;;;;;27.73;41.87;100363.13;5097379;28;787;-34
2021/06/26 10:08:30;;;;;;;;;;;;;;;27.84;41.93;100372.56;5078963;28;1108;-33
2021/06/26 10:10:59;;;;;;;;;;;;;;;27.80;40.76;100367.75;5097924;28;803;-34
2021/06/26 10:13:24;;;;;;;;;;;;;;;27.53;40.10;100367.53;5097398;28;815;-31
2021/06/26 10:15:50;;;;;;;;;;;;;;;27.33;40.00;100366.31;5079176;28;1970;-37
2021/06/26 10:18:15;;;;;;;;;;;;;;;27.19;40.13;100375.34;5079072;28;843;-35
2021/06/26 10:20:40;;;;;;;;;;;;;;;27.35;40.11;100385.03;5078692;28;998;-35
2021/06/26 10:23:06;;;;;;;;;;;;;;;27.77;39.68;100373.56;5097179;28;1162;-31
2021/06/26 10:25:35;;;;;;;;;;;;;;;27.99;40.24;100383.25;5097592;28;745;-31
2021/06/26 10:28:20;;;;;;;;;;;;;;;28.08;40.34;100402.88;5096477;28;808;-35
2021/06/26 10:31:02;;;;;;;;;;;;;;;28.28;40.88;100402.16;5095983;28;1310;-32
2021/06/26 10:33:29;;;;;;;;;;;;;;;27.84;39.36;100415.00;5097487;28;744;-33
2021/06/26 10:35:55;;;;;;;;;;;;;;;27.62;39.65;100409.59;5106279;28;1980;-32
2021/06/26 10:38:20;;;;;;;;;;;;;;;27.59;39.57;100418.91;5117442;28;791;-31
2021/06/26 10:40:46;;;;;;;;;;;;;;;27.61;39.45;100421.44;5117729;28;811;-32
2021/06/26 10:43:12;;;;;;;;;;;;;;;27.55;39.08;100427.59;5116885;28;668;-31
2021/06/26 10:45:38;;;;;;;;;;;;;;;27.54;39.10;100428.63;5098473;28;1049;-34
2021/06/26 10:48:12;;;;;;;;;;;;;;;27.37;39.34;100415.38;5096769;28;803;-31
2021/06/26 10:50:43;;;;;;;;;;;;;;;27.34;39.09;100415.78;5096776;28;808;-31
2021/06/26 10:53:08;;;;;;;;;;;;;;;27.32;39.28;100407.88;5097428;28;806;-32
2021/06/26 10:55:34;;;;;;;;;;;;;;;27.23;39.04;100419.81;5097145;28;1905;-33
2021/06/26 10:58:00;;;;;;;;;;;;;;;27.20;39.23;100423.75;5077867;28;1335;-36
2021/06/26 11:00:32;;;;;;;;;;;;;;;27.20;39.03;100425.59;5096745;28;959;-39
2021/06/26 11:02:58;;;;;;;;;;;;;;;27.12;39.03;100423.88;5096450;28;850;-33
2021/06/26 11:05:33;;;;;;;;;;;;;;;27.10;39.42;100418.66;5078222;28;789;-33
2021/06/26 11:07:58;;;;;;;;;;;;;;;27.14;38.58;100414.53;5097315;28;830;-34
2021/06/26 11:10:26;;;;;;;;;;;;;;;27.10;38.98;100412.41;5096544;28;831;-31
2021/06/26 11:12:52;;;;;;;;;;;;;;;27.10;38.60;100425.91;5077746;28;847;-33
2021/06/26 11:15:24;;;;;;;;;;;;;;;27.13;38.82;100430.91;5077446;28;1961;-34
2021/06/26 11:17:50;;;;;;;;;;;;;;;27.09;38.72;100426.94;5096388;28;747;-35
2021/06/26 11:20:15;;;;;;;;;;;;;;;27.08;38.87;100428.81;5096420;28;639;-33
2021/06/26 11:22:44;;;;;;;;;;;;;;;27.16;38.76;100432.41;5096526;28;1079;-33
2021/06/26 11:25:10;;;;;;;;;;;;;;;27.08;38.84;100425.25;5078210;28;1509;-32
2021/06/26 11:27:35;;;;;;;;;;;;;;;27.06;38.73;100420.06;5096396;28;779;-34
2021/06/26 11:30:02;;;;;;;;;;;;;;;27.01;38.92;100417.06;5095943;28;963;-36
2021/06/26 11:32:27;;;;;;;;;;;;;;;27.04;38.73;100415.88;5096549;28;779;-35
2021/06/26 11:35:03;;;;;;;;;;;;;;;26.97;38.79;100413.91;5096897;28;1901;-35
2021/06/26 11:37:35;;;;;;;;;;;;;;;26.99;38.78;100419.94;5116645;28;795;-34
2021/06/26 11:40:00;;;;;;;;;;;;;;;27.12;38.62;100423.88;5116808;28;822;-30
2021/06/26 11:42:26;;;;;;;;;;;;;;;27.04;38.56;100423.97;5116511;28;793;-32
2021/06/26 11:44:52;;;;;;;;;;;;;;;26.99;38.99;100432.63;5103906;28;993;-35
2021/06/26 11:47:17;;;;;;;;;;;;;;;27.06;38.56;100440.84;5096436;28;795;-32
2021/06/26 11:49:43;;;;;;;;;;;;;;;27.01;39.13;100434.13;5095974;28;819;-39
2021/06/26 11:52:09;;;;;;;;;;;;;;;27.01;38.89;100433.25;5096145;28;746;-33
2021/06/26 11:54:34;;;;;;;;;;;;;;;26.99;39.13;100429.91;5096689;28;1894;-36
2021/06/26 11:56:59;;;;;;;;;;;;;;;26.97;38.94;100434.66;5096330;28;791;-35
2021/06/26 11:59:29;;;;;;;;;;;;;;;27.03;39.11;100425.84;5095453;28;955;-33
2021/06/26 12:01:54;;;;;;;;;;;;;;;27.02;38.99;100418.78;5096540;28;791;-32
2021/06/26 12:04:29;;;;;;;;;;;;;;;27.00;39.11;100423.47;5095913;28;824;-39
2021/06/26 12:06:57;;;;;;;;;;;;;;;26.92;39.08;100419.03;5096440;28;764;-31
2021/06/26 12:09:26;;;;;;;;;;;;;;;26.93;39.38;100409.06;5096204;28;997;-34
2021/06/26 12:11:55;;;;;;;;;;;;;;;26.95;39.39;100415.13;5095783;28;752;-34
2021/06/26 12:14:24;;;;;;;;;;;;;;;27.10;39.01;100415.09;5095500;28;2041;-32
2021/06/26 12:16:49;;;;;;;;;;;;;;;27.08;39.32;100411.75;5095810;28;823;-39
2021/06/26 12:19:15;;;;;;;;;;;;;;;27.00;39.43;100408.13;5077453;28;1440;-33
2021/06/26 12:21:40;;;;;;;;;;;;;;;26.94;39.52;100400.81;5096203;28;1305;-36
2021/06/26 12:24:06;;;;;;;;;;;;;;;26.90;39.57;100402.19;5100854;28;746;-34
2021/06/26 12:26:31;;;;;;;;;;;;;;;26.89;39.75;100398.66;5099581;28;771;-32
2021/06/26 12:28:56;;;;;;;;;;;;;;;26.92;39.32;100391.22;5099289;28;1017;-33
2021/06/26 12:31:22;;;;;;;;;;;;;;;26.90;39.53;100392.25;5099810;28;511;-34
2021/06/26 12:33:59;;;;;;;;;;;;;;;26.88;39.50;100383.50;5099233;28;1968;-35
2021/06/26 12:36:25;;;;;;;;;;;;;;;26.89;39.38;100387.84;5113048;28;1193;-39
2021/06/26 12:38:50;;;;;;;;;;;;;;;26.89;39.34;100385.16;5119557;28;783;-31
2021/06/26 12:41:23;;;;;;;;;;;;;;;26.86;39.74;100374.75;5119364;28;946;-33
2021/06/26 12:43:51;;;;;;;;;;;;;;;26.87;39.51;100370.19;5115829;28;1001;-34
2021/06/26 12:46:18;;;;;;;;;;;;;;;26.85;39.48;100370.38;5099468;28;806;-34
2021/06/26 12:48:46;;;;;;;;;;;;;;;26.86;39.78;100366.66;5099081;28;1444;-38